Time,TemperatureF,DewpointF,PressureIn,WindDirection,WindDirectionDegrees,WindSpeedMPH,WindSpeedGustMPH,Humidity,HourlyPrecipIn,Conditions,Clouds,dailyrainin,SolarRadiationWatts/m^2,SoftwareType,DateUTC
2013-04-02 00:02:00,50.0,42.0,-100.00,North,359,5.0,7.0,74,0.00,,,0.00,1.000000,,2013-04-02 07:02:00,
2013-04-02 01:32:00,47.0,41.0,-100.00,SSW,210,7.0,10.0,79,-99.99,,,0.00,1.000000,,2013-04-02 08:32:00,
2013-04-02 01:42:00,47.0,41.0,-100.00,SSW,210,7.0,10.0,79,-99.99,,,0.00,1.000000,,2013-04-02 08:42:00,
2013-04-02 01:52:00,47.0,41.0,-100.00,SSW,210,7.0,10.0,79,-99.99,,,0.00,1.000000,,2013-04-02 08:52:00,
2013-04-02 02:01:00,47.0,41.0,-100.00,SSW,210,7.0,10.0,79,-99.99,,,0.00,1.000000,,2013-04-02 09:01:00,
2013-04-02 02:33:00,43.0,38.0,-100.00,West,259,2.0,6.0,83,0.00,,,0.00,1.000000,,2013-04-02 09:33:00,
2013-04-02 02:43:00,43.0,38.0,-100.00,West,259,2.0,6.0,83,0.00,,,0.00,1.000000,,2013-04-02 09:43:00,
2013-04-02 02:52:00,43.0,38.0,-100.00,West,259,2.0,6.0,83,0.00,,,0.00,1.000000,,2013-04-02 09:52:00,
2013-04-02 03:03:00,43.0,38.0,-100.00,West,259,2.0,6.0,83,0.00,,,0.00,1.000000,,2013-04-02 10:03:00,
2013-04-02 03:33:00,40.0,37.0,-100.00,SSW,201,2.0,5.0,89,0.00,,,0.00,1.000000,,2013-04-02 10:33:00,
2013-04-02 03:42:00,40.0,37.0,-100.00,SSW,201,2.0,5.0,89,0.00,,,0.00,1.000000,,2013-04-02 10:42:00,
2013-04-02 03:52:00,40.0,37.0,-100.00,SSW,201,2.0,5.0,89,0.00,,,0.00,1.000000,,2013-04-02 10:52:00,
2013-04-02 04:02:00,40.0,37.0,-100.00,SSW,201,2.0,5.0,89,0.00,,,0.00,1.000000,,2013-04-02 11:02:00,
2013-04-02 04:33:00,39.0,36.0,-100.00,South,180,3.0,5.0,90,0.00,,,0.00,1.000000,,2013-04-02 11:33:00,
2013-04-02 04:43:00,39.0,36.0,-100.00,South,180,3.0,5.0,90,0.00,,,0.00,1.000000,,2013-04-02 11:43:00,
2013-04-02 04:52:00,39.0,36.0,-100.00,South,180,3.0,5.0,90,0.00,,,0.00,1.000000,,2013-04-02 11:52:00,
2013-04-02 05:02:00,39.0,36.0,-100.00,South,180,3.0,5.0,90,0.00,,,0.00,1.000000,,2013-04-02 12:02:00,
2013-04-02 06:33:00,36.0,34.0,-100.00,SSW,208,2.0,3.0,94,-99.99,,,0.00,1.000000,,2013-04-02 13:33:00,
2013-04-02 06:42:00,36.0,34.0,-100.00,SSW,208,2.0,3.0,94,-99.99,,,0.00,1.000000,,2013-04-02 13:42:00,
2013-04-02 06:52:00,36.0,34.0,-100.00,SSW,208,2.0,3.0,94,-99.99,,,0.00,1.000000,,2013-04-02 13:52:00,
2013-04-02 07:02:00,36.0,34.0,-100.00,SSW,208,2.0,3.0,94,-99.99,,,0.00,1.000000,,2013-04-02 14:02:00,
2013-04-02 07:33:00,35.0,34.0,-100.00,SSW,212,1.0,6.0,95,0.00,,,0.00,6.000000,,2013-04-02 14:33:00,
2013-04-02 07:42:00,35.0,34.0,-100.00,SSW,212,1.0,6.0,95,0.00,,,0.00,6.000000,,2013-04-02 14:42:00,
2013-04-02 07:52:00,35.0,34.0,-100.00,SSW,212,1.0,6.0,95,0.00,,,0.00,6.000000,,2013-04-02 14:52:00,
2013-04-02 08:02:00,35.0,34.0,-100.00,SSW,212,1.0,6.0,95,0.00,,,0.00,6.000000,,2013-04-02 15:02:00,
2013-04-02 08:33:00,44.0,42.0,-100.00,ENE,74,2.0,3.0,92,0.00,,,0.00,134.000000,,2013-04-02 15:33:00,
2013-04-02 08:43:00,44.0,42.0,-100.00,ENE,74,2.0,3.0,92,0.00,,,0.00,134.000000,,2013-04-02 15:43:00,
2013-04-02 08:57:00,44.0,42.0,-100.00,ENE,74,2.0,3.0,92,0.00,,,0.00,134.000000,,2013-04-02 15:57:00,
2013-04-02 09:03:00,44.0,42.0,-100.00,ENE,74,2.0,3.0,92,0.00,,,0.00,134.000000,,2013-04-02 16:03:00,
2013-04-02 09:39:00,50.0,42.0,-100.00,East,79,3.0,4.0,73,0.00,,,-99.99,304.000000,,2013-04-02 16:39:00,
2013-04-02 09:44:00,50.0,42.0,-100.00,East,79,3.0,4.0,73,0.00,,,-99.99,304.000000,,2013-04-02 16:44:00,
2013-04-02 09:53:00,50.0,42.0,-100.00,East,79,3.0,4.0,73,0.00,,,-99.99,304.000000,,2013-04-02 16:53:00,
2013-04-02 10:03:00,50.0,42.0,-100.00,East,79,3.0,4.0,73,0.00,,,-99.99,304.000000,,2013-04-02 17:03:00,
2013-04-02 10:35:00,55.0,44.0,-100.00,SSE,151,3.0,6.0,67,0.00,,,0.00,457.000000,,2013-04-02 17:35:00,
2013-04-02 10:43:00,55.0,44.0,-100.00,SSE,151,3.0,6.0,67,0.00,,,0.00,457.000000,,2013-04-02 17:43:00,
2013-04-02 10:55:00,55.0,44.0,-100.00,SSE,151,3.0,6.0,67,0.00,,,0.00,457.000000,,2013-04-02 17:55:00,
2013-04-02 11:02:00,55.0,44.0,-100.00,SSE,151,3.0,6.0,67,0.00,,,0.00,457.000000,,2013-04-02 18:02:00,
2013-04-02 11:35:00,61.0,44.0,-100.00,NE,54,3.0,6.0,54,0.00,,,0.00,589.000000,,2013-04-02 18:35:00,
2013-04-02 11:43:00,61.0,44.0,-100.00,NE,54,3.0,6.0,54,0.00,,,0.00,589.000000,,2013-04-02 18:43:00,
2013-04-02 11:55:00,61.0,44.0,-100.00,NE,54,3.0,6.0,54,0.00,,,0.00,589.000000,,2013-04-02 18:55:00,
2013-04-02 12:02:00,61.0,44.0,-100.00,NE,54,3.0,6.0,54,0.00,,,0.00,589.000000,,2013-04-02 19:02:00,
2013-04-02 12:34:00,64.0,42.0,-100.00,NE,40,3.0,8.0,45,0.00,,,0.00,683.000000,,2013-04-02 19:34:00,
2013-04-02 12:45:00,64.0,42.0,-100.00,NE,40,3.0,8.0,45,0.00,,,0.00,683.000000,,2013-04-02 19:45:00,
2013-04-02 12:54:00,64.0,42.0,-100.00,NE,40,3.0,8.0,45,0.00,,,0.00,683.000000,,2013-04-02 19:54:00,
2013-04-02 13:02:00,64.0,42.0,-100.00,NE,40,3.0,8.0,45,0.00,,,0.00,683.000000,,2013-04-02 20:02:00,
2013-04-02 13:34:00,68.0,42.0,-100.00,South,182,3.0,7.0,39,0.00,,,0.00,733.000000,,2013-04-02 20:34:00,
2013-04-02 13:44:00,68.0,42.0,-100.00,South,182,3.0,7.0,39,0.00,,,0.00,733.000000,,2013-04-02 20:44:00,
2013-04-02 13:54:00,68.0,42.0,-100.00,South,182,3.0,7.0,39,0.00,,,0.00,733.000000,,2013-04-02 20:54:00,
2013-04-02 14:03:00,68.0,42.0,-100.00,South,182,3.0,7.0,39,0.00,,,0.00,733.000000,,2013-04-02 21:03:00,
2013-04-02 15:34:00,69.0,42.0,-100.00,NNW,331,10.0,16.0,38,-99.99,,,0.00,548.000000,,2013-04-02 22:34:00,
2013-04-02 15:44:00,69.0,42.0,-100.00,NNW,331,10.0,16.0,38,-99.99,,,0.00,548.000000,,2013-04-02 22:44:00,
2013-04-02 15:53:00,69.0,42.0,-100.00,NNW,331,10.0,16.0,38,-99.99,,,0.00,548.000000,,2013-04-02 22:53:00,
2013-04-02 16:02:00,69.0,42.0,-100.00,NNW,331,10.0,16.0,38,-99.99,,,0.00,548.000000,,2013-04-02 23:02:00,
2013-04-02 16:36:00,68.0,41.0,-100.00,NNW,344,12.0,20.0,37,0.00,,,0.00,579.000000,,2013-04-02 23:36:00,
2013-04-02 16:43:00,68.0,41.0,-100.00,NNW,344,12.0,20.0,37,0.00,,,0.00,579.000000,,2013-04-02 23:43:00,
2013-04-02 16:53:00,68.0,41.0,-100.00,NNW,344,12.0,20.0,37,0.00,,,0.00,579.000000,,2013-04-02 23:53:00,
2013-04-02 17:02:00,68.0,41.0,-100.00,NNW,344,12.0,20.0,37,0.00,,,0.00,579.000000,,2013-04-03 00:02:00,
2013-04-02 17:34:00,67.0,41.0,-100.00,NNW,344,13.0,21.0,38,0.00,,,0.00,458.000000,,2013-04-03 00:34:00,
2013-04-02 17:47:00,67.0,41.0,-100.00,NNW,344,13.0,21.0,38,0.00,,,0.00,458.000000,,2013-04-03 00:47:00,
2013-04-02 17:55:00,67.0,41.0,-100.00,NNW,344,13.0,21.0,38,0.00,,,0.00,458.000000,,2013-04-03 00:55:00,
2013-04-02 18:03:00,67.0,41.0,-100.00,NNW,344,13.0,21.0,38,0.00,,,0.00,458.000000,,2013-04-03 01:03:00,
2013-04-02 18:34:00,62.0,39.0,-100.00,NNW,339,12.0,20.0,43,0.00,,,0.00,252.000000,,2013-04-03 01:34:00,
2013-04-02 18:42:00,62.0,39.0,-100.00,NNW,339,12.0,20.0,43,0.00,,,0.00,252.000000,,2013-04-03 01:42:00,
2013-04-02 18:53:00,62.0,39.0,-100.00,NNW,339,12.0,20.0,43,0.00,,,0.00,252.000000,,2013-04-03 01:53:00,
2013-04-02 19:03:00,62.0,39.0,-100.00,NNW,339,12.0,20.0,43,0.00,,,0.00,252.000000,,2013-04-03 02:03:00,
2013-04-02 19:34:00,60.0,41.0,-100.00,NNW,339,7.0,17.0,49,0.00,,,0.00,114.000000,,2013-04-03 02:34:00,
2013-04-02 19:44:00,60.0,41.0,-100.00,NNW,339,7.0,17.0,49,0.00,,,0.00,114.000000,,2013-04-03 02:44:00,
2013-04-02 19:53:00,60.0,41.0,-100.00,NNW,339,7.0,17.0,49,0.00,,,0.00,114.000000,,2013-04-03 02:53:00,
2013-04-02 20:03:00,60.0,41.0,-100.00,NNW,339,7.0,17.0,49,0.00,,,0.00,114.000000,,2013-04-03 03:03:00,
2013-04-02 20:38:00,55.0,41.0,-100.00,SSW,195,2.0,11.0,58,0.00,,,0.00,7.000000,,2013-04-03 03:38:00,
2013-04-02 20:44:00,55.0,41.0,-100.00,SSW,195,2.0,11.0,58,0.00,,,0.00,7.000000,,2013-04-03 03:44:00,
2013-04-02 20:54:00,55.0,41.0,-100.00,SSW,195,2.0,11.0,58,0.00,,,0.00,7.000000,,2013-04-03 03:54:00,
2013-04-02 21:03:00,55.0,41.0,-100.00,SSW,195,2.0,11.0,58,0.00,,,0.00,7.000000,,2013-04-03 04:03:00,
2013-04-02 21:33:00,53.0,40.0,-100.00,WSW,251,3.0,7.0,62,0.00,,,0.00,1.000000,,2013-04-03 04:33:00,
2013-04-02 21:43:00,53.0,40.0,-100.00,WSW,251,3.0,7.0,62,0.00,,,0.00,1.000000,,2013-04-03 04:43:00,
2013-04-02 21:53:00,53.0,40.0,-100.00,WSW,251,3.0,7.0,62,0.00,,,0.00,1.000000,,2013-04-03 04:53:00,
2013-04-02 22:02:00,53.0,40.0,-100.00,WSW,251,3.0,7.0,62,0.00,,,0.00,1.000000,,2013-04-03 05:02:00,
2013-04-02 22:32:00,52.0,41.0,-100.00,WNW,297,2.0,6.0,65,0.00,,,0.00,1.000000,,2013-04-03 05:32:00,
2013-04-02 22:42:00,52.0,41.0,-100.00,WNW,297,2.0,6.0,65,0.00,,,0.00,1.000000,,2013-04-03 05:42:00,
2013-04-02 22:52:00,52.0,41.0,-100.00,WNW,297,2.0,6.0,65,0.00,,,0.00,1.000000,,2013-04-03 05:52:00,
2013-04-02 23:02:00,52.0,41.0,-100.00,WNW,297,2.0,6.0,65,0.00,,,0.00,1.000000,,2013-04-03 06:02:00,
2013-04-02 23:32:00,49.0,39.0,-100.00,SW,235,3.0,7.0,68,0.00,,,0.00,1.000000,,2013-04-03 06:32:00,
2013-04-02 23:42:00,49.0,39.0,-100.00,SW,235,3.0,7.0,68,0.00,,,0.00,1.000000,,2013-04-03 06:42:00,
2013-04-02 23:52:00,49.0,39.0,-100.00,SW,235,3.0,7.0,68,0.00,,,0.00,1.000000,,2013-04-03 06:52:00,